Time;durP1;ratioP1;P1;durP2;ratioP2;P2;SDS_P1;SDS_P2;PMS_P1;PMS_P2;Temp;Humidity;BMP_temperature;BMP_pressure;BME280_temperature;BME280_humidity;BME280_pressure;Samples;Min_cycle;Max_cycle;Signal;HPM_P1;HPM_P2
2021/03/17 00:02:43;;;;;;;21.83;19.52;;;6.70;56.80;52.70;160008.00;;;;5077372;28;20424;-77
2021/03/17 00:05:34;;;;;;;22.50;20.20;;;6.70;56.70;7.90;101044.00;;;;5079446;28;20443;-78
2021/03/17 00:08:22;;;;;;;23.20;19.83;;;6.70;56.70;7.80;67946.00;;;;5081818;28;20681;-80
2021/03/17 00:11:08;;;;;;;23.77;21.17;;;6.70;57.90;7.50;67951.00;;;;5076677;28;20423;-81
2021/03/17 00:13:54;;;;;;;23.67;20.60;;;6.60;58.50;7.70;67958.00;;;;5069313;28;20418;-78
2021/03/17 00:16:40;;;;;;;24.00;21.50;;;6.60;59.50;217.30;159960.00;;;;5072084;28;20470;-82
2021/03/17 00:19:28;;;;;;;24.23;21.70;;;6.60;60.20;52.70;160014.00;;;;5083874;28;20503;-81
2021/03/17 00:22:15;;;;;;;24.13;21.52;;;6.60;59.20;52.70;160014.00;;;;5085127;28;20488;-82
2021/03/17 00:25:02;;;;;;;24.95;22.33;;;6.60;59.40;217.30;160049.00;;;;5071871;28;20436;-80
2021/03/17 00:27:48;;;;;;;25.13;22.40;;;6.70;59.80;217.30;160023.00;;;;5064358;28;20422;-76
2021/03/17 00:30:36;;;;;;;25.80;22.20;;;6.70;58.90;7.90;68012.00;;;;5061905;28;20430;-78
2021/03/17 00:33:23;;;;;;;23.90;21.07;;;6.60;61.30;217.30;160014.00;;;;5067611;28;20887;-77
2021/03/17 00:36:09;;;;;;;23.88;21.38;;;6.60;63.00;7.80;67980.00;;;;5061331;28;20929;-80
2021/03/17 00:38:56;;;;;;;25.88;21.98;;;6.50;62.40;7.80;67977.00;;;;5060755;28;20422;-80
2021/03/17 00:41:42;;;;;;;24.73;22.13;;;6.50;62.10;7.70;67968.00;;;;5064277;28;20427;-78
2021/03/17 00:44:40;;;;;;;25.83;22.50;;;6.40;63.00;217.30;159996.00;;;;5057474;28;20426;-76
2021/03/17 00:47:26;;;;;;;25.35;22.60;;;6.40;62.10;52.70;159960.00;;;;5056804;28;20419;-78
2021/03/17 00:49:55;;;;;;;25.63;22.85;;;6.40;62.30;7.60;67958.00;;;;5067320;28;20428;-76
2021/03/17 00:52:24;;;;;;;26.42;23.60;;;6.40;62.90;217.30;159996.00;;;;5067456;28;20944;-78
2021/03/17 00:55:13;;;;;;;25.93;23.20;;;6.30;63.50;7.70;67954.00;;;;5060000;28;20471;-78
2021/03/17 00:57:53;;;;;;;27.35;23.63;;;6.40;63.30;217.30;159925.00;;;;5041650;28;20416;-79
2021/03/17 01:00:23;;;;;;;27.95;23.90;;;6.40;63.40;7.60;67980.00;;;;5054039;28;20452;-78
2021/03/17 01:02:51;;;;;;;26.50;23.60;;;6.40;63.40;7.80;67963.00;;;;5072562;28;21025;-80
2021/03/17 01:05:35;;;;;;;26.48;23.35;;;6.40;63.80;7.80;101039.00;;;;5054989;28;20448;-79
2021/03/17 01:08:03;;;;;;;27.40;24.40;;;6.40;65.10;7.70;67969.00;;;;5053765;28;20411;-80
2021/03/17 01:10:38;;;;;;;27.85;22.58;;;6.40;65.10;217.30;159946.00;;;;5060765;28;20508;-78
2021/03/17 01:13:06;;;;;;;29.17;25.30;;;6.30;64.90;7.70;67951.00;;;;5067073;28;20460;-79
2021/03/17 01:15:34;;;;;;;28.63;24.10;;;6.20;65.50;52.70;159835.00;;;;5044673;28;20495;-79
2021/03/17 01:18:02;;;;;;;27.40;24.40;;;6.20;65.60;217.30;159996.00;;;;5065742;28;20413;-78
2021/03/17 01:20:31;;;;;;;26.00;23.15;;;6.20;66.20;7.70;101037.00;;;;5041629;28;20420;-78
2021/03/17 01:22:59;;;;;;;27.05;23.92;;;6.30;66.20;7.80;101036.00;;;;5042563;28;20465;-78
2021/03/17 01:25:31;;;;;;;25.92;23.10;;;6.30;66.80;7.70;101049.00;;;;5058590;28;20881;-79
2021/03/17 01:28:02;;;;;;;25.67;22.65;;;6.40;65.80;217.30;160039.00;;;;5051720;28;20416;-77
2021/03/17 01:30:33;;;;;;;26.70;23.50;;;6.40;65.30;217.30;159982.00;;;;5053946;28;20432;-78
2021/03/17 01:33:02;;;;;;;27.55;24.55;;;6.50;66.10;7.90;68002.00;;;;5050201;28;20449;-78
2021/03/17 01:35:30;;;;;;;26.25;22.40;;;6.40;66.10;7.90;67977.00;;;;5052984;28;20423;-79
2021/03/17 01:37:57;;;;;;;26.85;23.35;;;6.60;66.20;7.90;68002.00;;;;5059082;28;20506;-79
2021/03/17 01:40:27;;;;;;;26.05;21.90;;;6.40;65.90;7.90;68020.00;;;;5045381;28;20456;-79
2021/03/17 01:42:56;;;;;;;26.80;23.80;;;6.50;66.00;8.00;68019.00;;;;5060159;28;20467;-78
2021/03/17 01:45:25;;;;;;;27.00;24.10;;;6.40;66.30;8.00;68012.00;;;;5070679;28;20448;-77
2021/03/17 01:47:54;;;;;;;27.40;24.40;;;6.50;66.10;7.90;101034.00;;;;5076093;28;20470;-76
2021/03/17 01:50:25;;;;;;;26.77;23.88;;;6.50;65.50;8.00;68025.00;;;;5075663;28;21331;-76
2021/03/17 01:52:54;;;;;;;28.38;24.98;;;6.50;66.20;8.00;68025.00;;;;5076261;28;20449;-77
2021/03/17 01:55:22;;;;;;;26.83;23.92;;;6.50;65.80;8.00;101033.00;;;;5075327;28;20437;-77
2021/03/17 01:57:50;;;;;;;27.60;24.60;;;6.50;65.20;52.70;160029.00;;;;5068410;28;20448;-76
2021/03/17 02:00:20;;;;;;;31.05;25.38;;;6.40;64.70;7.90;68008.00;;;;5062603;28;20452;-77
2021/03/17 02:02:50;;;;;;;28.17;24.70;;;6.40;64.70;7.90;67985.00;;;;5064944;28;20439;-77
2021/03/17 02:05:22;;;;;;;27.33;23.60;;;6.50;64.40;217.30;160085.00;;;;5047151;28;20431;-77
2021/03/17 02:07:51;;;;;;;27.40;24.02;;;6.50;63.10;7.80;67985.00;;;;5063388;28;20485;-79
2021/03/17 02:10:19;;;;;;;29.27;24.70;;;6.40;63.50;217.30;160008.00;;;;5044661;28;20425;-77
2021/03/17 02:12:59;;;;;;;29.23;24.27;;;6.30;63.60;7.80;101037.00;;;;5073797;28;20407;-76
2021/03/17 02:15:46;;;;;;;27.00;24.10;;;6.40;63.60;217.30;160029.00;;;;5068425;28;20471;-75
2021/03/17 02:18:31;;;;;;;27.07;24.10;;;6.30;63.30;7.70;101059.00;;;;5065315;28;20536;-77
2021/03/17 02:21:37;;;;;;;29.00;24.40;;;6.30;63.20;7.70;67954.00;;;;5053658;28;20425;-79
2021/03/17 02:24:17;;;;;;;30.80;25.03;;;6.20;64.30;7.40;67938.00;;;;5080868;28;20475;-79
2021/03/17 02:27:26;;;;;;;31.15;25.20;;;6.10;64.80;7.50;67914.00;;;;5077619;28;20421;-78
2021/03/17 02:30:33;;;;;;;30.73;24.88;;;6.00;66.50;7.40;101051.00;;;;5082504;28;20446;-78
2021/03/17 02:33:45;;;;;;;32.17;24.58;;;5.90;66.60;217.30;159829.00;;;;5026834;28;20419;-78
2021/03/17 02:36:19;;;;;;;31.08;25.45;;;5.90;68.10;7.30;67888.00;;;;5062809;28;20460;-79
2021/03/17 02:38:53;;;;;;;32.05;26.20;;;5.80;68.20;7.40;101063.00;;;;5067387;28;20437;-80
2021/03/17 02:41:27;;;;;;;30.33;25.23;;;5.80;68.40;7.40;101050.00;;;;5044263;28;20409;-79
2021/03/17 02:43:57;;;;;;;34.88;26.13;;;5.90;68.00;7.40;101049.00;;;;5060447;28;20477;-79
2021/03/17 02:46:28;;;;;;;36.53;27.20;;;5.90;68.00;7.40;101057.00;;;;5059027;28;20439;-80
2021/03/17 02:49:10;;;;;;;30.83;26.45;;;5.90;68.10;52.70;159776.00;;;;5060010;28;20474;-81
2021/03/17 02:51:43;;;;;;;32.93;26.87;;;6.00;67.30;217.30;159899.00;;;;5064950;28;20520;-79
2021/03/17 02:54:13;;;;;;;31.02;25.95;;;5.90;67.50;7.40;101022.00;;;;5076753;28;20522;-78
2021/03/17 02:56:46;;;;;;;30.95;25.80;;;5.80;67.80;217.30;159861.00;;;;5061648;28;20520;-79
2021/03/17 02:59:17;;;;;;;29.63;25.10;;;5.80;68.80;7.30;67864.00;;;;5041693;28;20416;-79
2021/03/17 03:01:50;;;;;;;32.70;26.10;;;5.70;68.90;7.20;67850.00;;;;5067294;28;20463;-79
2021/03/17 03:04:20;;;;;;;33.38;26.63;;;5.60;69.30;217.30;159708.00;;;;5062776;28;20459;-80
2021/03/17 03:06:50;;;;;;;30.35;25.38;;;5.60;69.50;7.10;101039.00;;;;5057938;28;20427;-80
2021/03/17 03:09:21;;;;;;;33.05;26.35;;;5.50;70.00;217.30;159734.00;;;;5060713;28;20420;-78
2021/03/17 03:11:51;;;;;;;33.70;25.33;;;5.50;69.90;217.30;159714.00;;;;5048827;28;20529;-81
2021/03/17 03:14:21;;;;;;;33.22;26.73;;;5.50;70.10;7.00;67791.00;;;;5059992;28;20423;-78
2021/03/17 03:16:49;;;;;;;33.60;26.43;;;5.50;70.30;217.30;159657.00;;;;5073835;28;20456;-79
2021/03/17 03:19:20;;;;;;;35.50;27.30;;;5.40;70.20;6.90;67778.00;;;;5056859;28;20416;-78
2021/03/17 03:21:47;;;;;;;34.10;26.45;;;5.40;70.70;52.70;159593.00;;;;5050306;28;20759;-78
2021/03/17 03:24:16;;;;;;;33.72;27.45;;;5.30;71.10;6.70;67746.00;;;;5048204;28;20460;-81
2021/03/17 03:26:44;;;;;;;34.22;26.63;;;5.30;71.30;6.70;67762.00;;;;5064479;28;20939;-79
2021/03/17 03:29:12;;;;;;;35.72;26.98;;;5.30;71.60;6.80;67788.00;;;;5059792;28;20429;-80
2021/03/17 03:31:39;;;;;;;33.42;26.90;;;5.40;72.00;217.30;159673.00;;;;5060300;28;20429;-78
2021/03/17 03:34:08;;;;;;;31.55;26.20;;;5.50;72.00;7.10;67831.00;;;;5060739;28;20731;-79
2021/03/17 03:36:36;;;;;;;32.72;25.90;;;5.60;71.30;217.30;159744.00;;;;5044407;28;21153;-80
2021/03/17 03:39:04;;;;;;;33.17;27.07;;;5.60;71.00;217.30;159714.00;;;;5046608;28;20441;-79
2021/03/17 03:41:32;;;;;;;31.25;25.95;;;5.60;70.40;52.70;159740.00;;;;5071877;28;20455;-78
2021/03/17 03:43:59;;;;;;;34.63;27.13;;;5.50;71.00;52.70;159754.00;;;;5069248;28;20416;-77
2021/03/17 03:46:33;;;;;;;33.63;25.70;;;5.40;71.70;217.30;159704.00;;;;5075825;28;20404;-76
2021/03/17 03:49:02;;;;;;;34.60;26.60;;;5.40;70.90;217.30;159693.00;;;;5052899;28;20501;-80
2021/03/17 03:51:31;;;;;;;38.72;27.45;;;5.40;71.80;217.30;159635.00;;;;5060495;28;20506;-79
2021/03/17 03:54:17;;;;;;;36.63;26.80;;;5.50;72.30;217.30;159702.00;;;;5044654;28;20428;-77
2021/03/17 03:56:54;;;;;;;38.70;28.35;;;5.40;72.60;7.00;67810.00;;;;5051648;28;20452;-79
2021/03/17 03:59:24;;;;;;;34.50;26.63;;;5.40;72.30;7.00;67779.00;;;;5045081;28;20835;-78
2021/03/17 04:01:55;;;;;;;34.03;26.57;;;5.40;71.90;6.90;67797.00;;;;5044981;28;20435;-81
2021/03/17 04:04:28;;;;;;;35.35;26.33;;;5.30;71.70;217.30;159639.00;;;;5064349;28;20429;-79
2021/03/17 04:07:01;;;;;;;32.13;25.77;;;5.40;71.50;6.90;101081.00;;;;5059296;28;20426;-80
2021/03/17 04:09:32;;;;;;;34.10;24.95;;;5.40;71.50;7.00;67791.00;;;;5050266;28;20417;-77
2021/03/17 04:12:03;;;;;;;34.78;26.70;;;5.50;71.20;7.00;67807.00;;;;5085435;28;20417;-76
2021/03/17 04:14:34;;;;;;;34.70;26.02;;;5.50;71.00;6.90;101090.00;;;;5068647;28;20444;-78
2021/03/17 04:17:07;;;;;;;31.40;25.30;;;5.40;70.50;6.90;67786.00;;;;5041267;28;20419;-78
2021/03/17 04:19:37;;;;;;;34.97;25.92;;;5.40;70.60;217.30;159593.00;;;;5043681;28;20425;-80
2021/03/17 04:22:06;;;;;;;32.67;25.80;;;5.30;71.10;6.70;67734.00;;;;5045540;28;20442;-78
2021/03/17 04:24:36;;;;;;;34.25;26.38;;;5.30;71.10;6.70;101027.00;;;;5043705;28;20421;-79
2021/03/17 04:27:04;;;;;;;33.20;24.57;;;5.30;71.90;6.50;101088.00;;;;5063688;28;20580;-78
2021/03/17 04:29:33;;;;;;;31.83;25.73;;;5.20;72.60;6.60;101103.00;;;;5045144;28;20446;-79
2021/03/17 04:32:02;;;;;;;34.40;23.43;;;5.10;72.60;6.40;67674.00;;;;5062847;28;20320;-79
2021/03/17 04:34:31;;;;;;;35.33;26.33;;;5.00;72.60;6.60;101091.00;;;;5045162;28;20420;-78
2021/03/17 04:36:59;;;;;;;32.43;23.30;;;5.10;73.30;6.40;67685.00;;;;5071029;28;20721;-78
2021/03/17 04:39:27;;;;;;;33.75;26.30;;;5.00;73.00;6.50;67712.00;;;;5074798;28;20421;-79
2021/03/17 04:41:57;;;;;;;35.03;27.92;;;5.00;73.10;52.70;159561.00;;;;5044276;28;20417;-79
2021/03/17 04:44:25;;;;;;;35.47;26.95;;;5.10;73.40;52.70;159603.00;;;;5063428;28;20445;-78
2021/03/17 04:46:54;;;;;;;35.42;26.85;;;5.20;72.80;6.80;101111.00;;;;5044839;28;20406;-79
2021/03/17 04:49:24;;;;;;;32.43;23.37;;;5.30;72.30;6.50;67693.00;;;;5051304;28;20189;-80
2021/03/17 04:51:53;;;;;;;34.90;26.25;;;5.10;72.60;217.30;159476.00;;;;5046820;28;20421;-78
2021/03/17 04:54:20;;;;;;;34.90;25.58;;;5.10;73.30;52.70;159405.00;;;;5054041;28;20479;-78
2021/03/17 04:56:49;;;;;;;32.33;25.40;;;5.10;73.10;217.30;159552.00;;;;5079441;28;20416;-77
2021/03/17 04:59:21;;;;;;;32.50;24.88;;;5.20;73.20;6.60;67720.00;;;;5071752;28;20430;-78
2021/03/17 05:01:51;;;;;;;32.10;21.97;;;5.20;72.30;217.30;159373.00;;;;5056929;28;20208;-78
2021/03/17 05:04:20;;;;;;;37.60;25.80;;;5.00;72.70;6.40;101015.00;;;;5060420;28;20601;-78
2021/03/17 05:06:50;;;;;;;34.57;23.60;;;4.90;73.30;6.10;67612.00;;;;5056186;28;20213;-80
2021/03/17 05:09:18;;;;;;;40.00;27.42;;;4.80;74.00;6.20;67637.00;;;;5044913;28;20449;-79
2021/03/17 05:11:47;;;;;;;33.73;22.80;;;4.70;74.40;6.00;67520.00;;;;5056861;28;20212;-78
2021/03/17 05:14:15;;;;;;;38.13;26.55;;;4.60;74.40;6.10;101094.00;;;;5072999;28;20446;-77
2021/03/17 05:16:45;;;;;;;50.63;23.63;;;4.60;74.80;217.30;159129.00;;;;5080340;28;20248;-78
2021/03/17 05:19:15;;;;;;;42.95;26.55;;;4.70;75.40;5.80;101096.00;;;;5047293;28;20413;-77
2021/03/17 05:21:44;;;;;;;29.67;20.90;;;4.50;76.20;5.80;101085.00;;;;5055789;28;20269;-78
2021/03/17 05:24:14;;;;;;;34.27;22.40;;;4.60;76.80;52.70;159214.00;;;;5063207;28;20455;-76
2021/03/17 05:26:41;;;;;;;37.70;27.80;;;4.50;76.80;6.10;101043.00;;;;5074008;28;20445;-78
2021/03/17 05:29:11;;;;;;;31.63;21.70;;;4.60;76.80;52.70;159300.00;;;;5058127;28;20520;-78
2021/03/17 05:31:38;;;;;;;37.45;27.05;;;4.80;76.40;6.30;101057.00;;;;5073465;28;20458;-79
2021/03/17 05:34:07;;;;;;;38.17;23.73;;;4.70;76.20;6.20;101096.00;;;;5060257;28;20229;-77
2021/03/17 05:36:34;;;;;;;34.07;23.83;;;4.70;76.30;6.10;67612.00;;;;5040936;28;20447;-78
2021/03/17 05:39:02;;;;;;;34.73;24.40;;;4.60;76.30;6.00;67587.00;;;;5041696;28;20451;-78
2021/03/17 05:41:30;;;;;;;35.40;28.25;;;4.50;76.00;217.30;159331.00;;;;5054014;28;20459;-79
2021/03/17 05:43:59;;;;;;;35.55;28.00;;;4.50;76.10;217.30;159294.00;;;;5058959;28;20424;-79
2021/03/17 05:46:31;;;;;;;39.72;30.02;;;4.60;76.10;6.50;67702.00;;;;5046280;28;20494;-77
2021/03/17 05:48:59;;;;;;;38.10;27.58;;;4.80;75.60;6.60;67696.00;;;;5040721;28;20428;-80
2021/03/17 05:51:28;;;;;;;40.47;27.08;;;5.00;75.00;52.70;159573.00;;;;5047516;28;20415;-79
2021/03/17 05:53:56;;;;;;;36.57;21.53;;;5.10;74.50;6.60;67717.00;;;;5048511;28;20204;-80
2021/03/17 05:56:24;;;;;;;36.05;25.83;;;5.00;73.80;6.80;67759.00;;;;5056434;28;20462;-79
2021/03/17 05:58:52;;;;;;;33.50;23.67;;;5.10;73.50;217.30;159645.00;;;;5040084;28;21049;-78
2021/03/17 06:01:21;;;;;;;34.60;24.53;;;5.30;72.60;217.30;159673.00;;;;5063415;28;20495;-78
2021/03/17 06:03:49;;;;;;;35.70;24.25;;;5.30;71.60;217.30;159704.00;;;;5061479;28;20447;-81
2021/03/17 06:06:19;;;;;;;33.83;23.90;;;5.40;70.80;7.00;67810.00;;;;5063111;28;20434;-78
2021/03/17 06:08:48;;;;;;;30.02;22.20;;;5.40;69.00;217.30;159683.00;;;;5069451;28;20422;-78
2021/03/17 06:11:16;;;;;;;29.30;21.60;;;5.40;68.10;7.00;67820.00;;;;5064059;28;20453;-80
2021/03/17 06:13:49;;;;;;;29.13;21.55;;;5.40;67.80;7.00;101128.00;;;;5073978;28;20440;-79
2021/03/17 06:16:22;;;;;;;26.13;20.47;;;5.50;67.40;7.20;101121.00;;;;5065291;28;20427;-77
2021/03/17 06:18:53;;;;;;;32.70;23.00;;;5.60;66.90;7.20;67853.00;;;;5084080;28;20419;-77
2021/03/17 06:21:20;;;;;;;30.17;22.38;;;5.70;66.30;217.30;159756.00;;;;5058392;28;20504;-80
2021/03/17 06:23:51;;;;;;;29.30;20.43;;;5.70;66.30;7.10;67850.00;;;;5049260;28;20206;-78
2021/03/17 06:26:19;;;;;;;33.67;24.90;;;5.70;67.80;7.40;101127.00;;;;5051577;28;20448;-76
2021/03/17 06:28:48;;;;;;;31.80;24.30;;;5.70;69.10;7.50;101124.00;;;;5057134;28;21016;-81
2021/03/17 06:31:20;;;;;;;30.73;24.55;;;5.70;68.40;7.60;101124.00;;;;5041264;28;20520;-78
2021/03/17 06:33:52;;;;;;;33.33;21.70;;;5.70;68.60;7.40;101114.00;;;;5045365;28;20197;-77
2021/03/17 06:36:21;;;;;;;31.45;24.05;;;5.70;70.00;7.60;101131.00;;;;5037059;28;20444;-77
2021/03/17 06:38:51;;;;;;;27.30;19.53;;;5.70;70.40;7.30;101150.00;;;;5038892;28;20452;-77
2021/03/17 06:41:19;;;;;;;28.98;22.70;;;5.80;70.10;7.60;101160.00;;;;5038704;28;20492;-78
2021/03/17 06:43:50;;;;;;;27.53;19.20;;;5.80;69.60;7.20;67869.00;;;;5048861;28;20211;-76
2021/03/17 06:46:20;;;;;;;33.38;24.33;;;5.60;68.50;7.20;101158.00;;;;5061801;28;20452;-79
2021/03/17 06:48:57;;;;;;;29.83;20.10;;;5.60;70.00;52.70;159587.00;;;;5050220;28;20208;-84
2021/03/17 06:51:29;;;;;;;26.10;19.20;;;5.50;71.60;52.70;159577.00;;;;5087447;28;20414;-84
2021/03/17 06:53:59;;;;;;;21.87;15.60;;;5.40;71.60;217.30;159427.00;;;;5066013;28;20212;-85
2021/03/17 06:56:29;;;;;;;20.92;16.55;;;5.30;71.40;6.00;67648.00;;;;5064231;28;20489;-81
2021/03/17 06:59:00;;;;;;;20.85;14.75;;;5.40;71.80;217.30;159294.00;;;;5041891;28;20422;-81
2021/03/17 07:01:35;;;;;;;20.77;14.13;;;5.30;72.40;52.70;159337.00;;;;5045979;28;20426;-85
2021/03/17 07:04:06;;;;;;;19.73;13.23;;;5.20;72.30;6.50;101132.00;;;;5059497;28;20470;-81
2021/03/17 07:06:36;;;;;;;15.50;10.73;;;5.30;72.50;217.30;159443.00;;;;5065556;28;20221;-79
2021/03/17 07:09:21;;;;;;;17.73;13.18;;;5.40;73.00;6.70;101164.00;;;;5050389;28;20439;-80
2021/03/17 07:11:51;;;;;;;14.17;9.80;;;5.40;72.60;6.70;67742.00;;;;5069235;28;20471;-79
2021/03/17 07:14:25;;;;;;;14.90;12.13;;;5.60;72.30;7.00;101140.00;;;;5073155;28;20447;-82
2021/03/17 07:16:53;;;;;;;16.23;10.33;;;5.70;69.70;6.90;101118.00;;;;5086680;28;20225;-82
2021/03/17 07:19:33;;;;;;;17.20;12.70;;;5.70;68.90;7.00;101148.00;;;;5072114;28;20412;-83
2021/03/17 07:22:13;;;;;;;15.47;10.70;;;5.80;69.30;6.90;101164.00;;;;5063676;28;20200;-82
2021/03/17 07:24:45;;;;;;;16.40;12.80;;;5.90;67.00;217.30;159851.00;;;;5068293;28;20420;-80
2021/03/17 07:27:19;;;;;;;19.60;13.52;;;6.00;66.50;217.30;159909.00;;;;5066271;28;20486;-82
2021/03/17 07:30:11;;;;;;;17.67;13.48;;;6.30;65.40;52.70;159925.00;;;;5080284;28;20447;-82
2021/03/17 07:33:03;;;;;;;17.77;12.88;;;6.20;65.50;217.30;159859.00;;;;5066319;28;20421;-79
2021/03/17 07:35:34;;;;;;;17.58;13.30;;;6.10;65.30;217.30;159823.00;;;;5093489;28;20430;-81
2021/03/17 07:38:07;;;;;;;21.45;14.07;;;6.40;64.40;52.70;159819.00;;;;5076602;28;20486;-81
2021/03/17 07:40:38;;;;;;;21.13;14.85;;;6.00;65.90;217.30;159887.00;;;;5061339;28;20417;-80
2021/03/17 07:43:09;;;;;;;28.88;22.58;;;6.30;66.90;217.30;159823.00;;;;5064319;28;20425;-81
2021/03/17 07:45:38;;;;;;;29.10;22.50;;;6.10;66.10;7.60;67913.00;;;;5062776;28;20417;-82
2021/03/17 07:48:10;;;;;;;29.23;23.43;;;6.20;66.30;7.80;67994.00;;;;5061557;28;20502;-81
2021/03/17 07:50:41;;;;;;;29.20;23.10;;;6.30;64.60;8.00;101154.00;;;;5065944;28;20423;-81
2021/03/17 07:53:17;;;;;;;29.75;23.35;;;6.40;63.60;8.20;68084.00;;;;5075662;28;20496;-79
2021/03/17 07:55:49;;;;;;;31.45;24.55;;;6.60;63.40;217.30;160313.00;;;;5063599;28;20421;-79
2021/03/17 07:58:17;;;;;;;31.67;23.70;;;6.80;63.50;8.50;101164.00;;;;5044858;28;20448;-79
2021/03/17 08:00:45;;;;;;;37.30;25.45;;;6.90;62.40;8.50;68138.00;;;;5056160;28;20477;-80
2021/03/17 08:03:15;;;;;;;32.80;24.43;;;6.90;61.80;8.50;101153.00;;;;5055345;28;20419;-80
2021/03/17 08:05:43;;;;;;;28.47;20.47;;;6.90;61.50;217.30;160109.00;;;;5054507;28;20509;-80
2021/03/17 08:08:12;;;;;;;32.05;23.88;;;6.70;61.60;8.10;101099.00;;;;5079006;28;20485;-82
2021/03/17 08:10:43;;;;;;;30.90;21.30;;;6.60;62.70;7.90;67980.00;;;;5069012;28;20201;-80
2021/03/17 08:13:13;;;;;;;32.93;25.30;;;6.50;63.40;8.10;101172.00;;;;5066147;28;20456;-80
2021/03/17 08:15:44;;;;;;;32.63;21.03;;;6.50;63.20;8.10;101157.00;;;;5069447;28;20513;-79
2021/03/17 08:18:43;;;;;;;33.03;23.88;;;6.50;63.90;8.20;101133.00;;;;5059263;28;20416;-81
2021/03/17 08:21:12;;;;;;;27.07;20.30;;;6.60;63.30;217.30;160133.00;;;;5051745;28;20273;-79
2021/03/17 08:23:47;;;;;;;29.17;22.33;;;6.60;62.70;8.30;101110.00;;;;5064061;28;20425;-80
2021/03/17 08:26:53;;;;;;;30.93;19.60;;;6.60;61.70;8.10;101155.00;;;;5044488;28;20209;-79
2021/03/17 08:29:21;;;;;;;30.40;23.58;;;6.50;61.30;8.40;101156.00;;;;5060854;28;20513;-79
2021/03/17 08:31:52;;;;;;;26.50;19.50;;;6.60;61.80;8.40;101165.00;;;;5047026;28;21042;-79
2021/03/17 08:34:25;;;;;;;32.80;23.83;;;6.70;61.40;8.80;101112.00;;;;5063675;28;20973;-77
2021/03/17 08:36:55;;;;;;;25.90;20.43;;;6.90;61.00;8.50;68135.00;;;;5057407;28;20276;-80
2021/03/17 08:39:48;;;;;;;28.60;22.83;;;6.90;60.10;8.70;101139.00;;;;5074390;28;21118;-79
2021/03/17 08:42:30;;;;;;;30.80;24.15;;;6.90;59.60;217.30;160424.00;;;;5065697;28;20474;-83
2021/03/17 08:45:00;;;;;;;31.35;23.60;;;7.00;60.30;217.30;160561.00;;;;5067009;28;20411;-83
2021/03/17 08:47:33;;;;;;;28.03;21.07;;;7.20;59.10;8.50;68165.00;;;;5065343;28;20234;-79
2021/03/17 08:50:20;;;;;;;29.80;23.80;;;7.00;58.10;9.00;68258.00;;;;5048060;28;20425;-81
2021/03/17 08:52:50;;;;;;;28.90;22.48;;;7.10;59.20;9.30;101099.00;;;;5062411;28;20423;-80
2021/03/17 08:55:18;;;;;;;28.37;19.23;;;7.30;59.10;9.10;101141.00;;;;5054442;28;20220;-81
2021/03/17 08:58:02;;;;;;;26.90;22.45;;;7.20;59.20;8.80;101144.00;;;;5051240;28;20444;-81
2021/03/17 09:00:54;;;;;;;28.48;22.38;;;7.10;59.50;9.30;68295.00;;;;5053902;28;20437;-80
2021/03/17 09:03:46;;;;;;;28.95;22.60;;;7.20;59.70;9.30;101124.00;;;;5067638;28;20425;-79
2021/03/17 09:06:25;;;;;;;27.50;19.40;;;7.30;58.20;9.10;101153.00;;;;5062136;28;20209;-79
2021/03/17 09:09:07;;;;;;;28.83;21.45;;;7.10;60.40;217.30;160593.00;;;;5053383;28;20426;-77
2021/03/17 09:11:58;;;;;;;27.67;22.13;;;7.10;60.20;9.30;101107.00;;;;5049968;28;20429;-77
2021/03/17 09:14:41;;;;;;;26.53;19.60;;;7.20;59.10;9.10;101163.00;;;;5064709;28;20208;-77
2021/03/17 09:17:31;;;;;;;28.48;21.50;;;7.10;61.40;9.30;101155.00;;;;5049612;28;20427;-78
2021/03/17 09:20:25;;;;;;;25.90;18.97;;;7.30;59.20;9.10;101160.00;;;;5072795;28;20200;-77
2021/03/17 09:23:17;;;;;;;28.60;21.98;;;7.10;60.00;9.20;101162.00;;;;5061464;28;20416;-77
2021/03/17 09:25:49;;;;;;;24.57;16.47;;;7.10;60.60;8.90;101172.00;;;;5042969;28;20269;-78
2021/03/17 09:28:23;;;;;;;33.58;23.48;;;6.80;64.10;8.90;101179.00;;;;5053138;28;20471;-78
2021/03/17 09:30:56;;;;;;;30.95;23.55;;;6.80;65.80;8.80;101180.00;;;;5071926;28;20894;-78
2021/03/17 09:33:27;;;;;;;34.37;20.73;;;6.80;65.60;217.30;160313.00;;;;5049904;28;20217;-79
2021/03/17 09:35:59;;;;;;;32.00;23.13;;;6.80;69.10;8.50;68148.00;;;;5045072;28;20455;-78
2021/03/17 09:38:31;;;;;;;25.57;16.87;;;6.90;69.90;8.00;68098.00;;;;5047389;28;20464;-78
2021/03/17 09:41:09;;;;;;;24.47;18.83;;;7.00;69.20;217.30;160291.00;;;;5044646;28;20439;-79
2021/03/17 09:43:57;;;;;;;25.73;15.43;;;6.80;67.90;217.30;160329.00;;;;5053843;28;21067;-77
2021/03/17 09:46:32;;;;;;;24.57;18.77;;;6.90;68.20;9.00;101172.00;;;;5044367;28;21435;-79
2021/03/17 09:49:04;;;;;;;18.60;14.40;;;7.00;67.40;8.80;68199.00;;;;5068897;28;21553;-80
2021/03/17 09:51:37;;;;;;;20.65;17.45;;;7.00;65.00;8.90;101175.00;;;;5070121;28;20415;-78
2021/03/17 09:54:07;;;;;;;21.47;14.20;;;7.10;67.50;8.40;68157.00;;;;5054099;28;20209;-78
2021/03/17 09:56:38;;;;;;;22.83;17.20;;;7.00;65.70;8.60;101177.00;;;;5053646;28;20426;-78
2021/03/17 09:59:28;;;;;;;19.17;14.13;;;6.80;63.30;8.50;68149.00;;;;5046241;28;20200;-78
2021/03/17 10:02:00;;;;;;;22.27;16.60;;;6.80;61.60;9.10;101176.00;;;;5053470;28;20413;-82
2021/03/17 10:04:30;;;;;;;20.77;14.77;;;7.10;62.00;9.20;68295.00;;;;5056981;28;20380;-79
2021/03/17 10:06:58;;;;;;;19.33;14.60;;;7.40;59.80;9.40;101149.00;;;;5057246;28;20420;-83
2021/03/17 10:09:28;;;;;;;14.80;10.63;;;7.40;57.00;9.40;101164.00;;;;5078923;28;20574;-78
2021/03/17 10:12:02;;;;;;;16.75;10.30;;;7.50;58.10;10.10;101165.00;;;;5047739;28;20437;-78
2021/03/17 10:14:30;;;;;;;11.00;8.18;;;7.90;54.10;10.80;68628.00;;;;5050792;28;20425;-79
2021/03/17 10:17:03;;;;;;;9.77;6.50;;;8.50;50.10;10.80;101162.00;;;;5060659;28;20424;-79
2021/03/17 10:19:33;;;;;;;10.33;6.67;;;8.60;43.80;9.80;101179.00;;;;5052431;28;20803;-80
2021/03/17 10:22:02;;;;;;;10.88;7.00;;;8.00;47.50;9.60;101175.00;;;;5049899;28;20419;-79
2021/03/17 10:24:43;;;;;;;10.30;6.20;;;7.70;52.90;9.20;101181.00;;;;5043809;28;20212;-80
2021/03/17 10:27:13;;;;;;;9.32;5.43;;;7.50;55.40;9.30;101163.00;;;;5050167;28;20491;-78
2021/03/17 10:29:43;;;;;;;8.80;3.50;;;7.40;51.90;217.30;160313.00;;;;5058817;28;20426;-82
2021/03/17 10:32:16;;;;;;;5.47;3.60;;;6.90;50.90;8.10;68085.00;;;;5062567;28;20411;-78
2021/03/17 10:34:44;;;;;;;7.10;4.30;;;6.50;54.60;52.70;160176.00;;;;5070648;28;20427;-77
2021/03/17 10:37:17;;;;;;;6.10;3.50;;;6.30;56.40;8.60;101183.00;;;;5042318;28;20412;-77
2021/03/17 10:39:44;;;;;;;7.13;3.10;;;6.60;58.40;8.90;68234.00;;;;5044434;28;20220;-78
2021/03/17 10:42:20;;;;;;;6.07;3.28;;;6.90;55.30;9.40;101134.00;;;;5056273;28;20809;-82
2021/03/17 10:45:06;;;;;;;4.37;3.37;;;7.30;54.50;9.30;101161.00;;;;5064941;28;20215;-82
2021/03/17 10:47:36;;;;;;;4.40;3.00;;;7.20;51.50;9.40;101173.00;;;;5060207;28;20436;-77
2021/03/17 10:50:05;;;;;;;5.37;3.03;;;7.10;46.70;9.20;101126.00;;;;5045925;28;20222;-78
2021/03/17 10:52:37;;;;;;;5.07;2.70;;;7.00;48.30;9.10;68290.00;;;;5050442;28;20569;-78
2021/03/17 10:55:20;;;;;;;3.38;2.30;;;6.90;44.80;9.20;101174.00;;;;5067425;28;20416;-80
2021/03/17 10:57:49;;;;;;;5.00;2.43;;;6.90;42.40;9.00;68258.00;;;;5046040;28;20241;-80
2021/03/17 11:00:30;;;;;;;5.80;3.00;;;6.80;44.70;9.00;101165.00;;;;5061430;28;20420;-80
2021/03/17 11:03:01;;;;;;;5.77;4.40;;;6.70;45.60;9.10;101179.00;;;;5047039;28;20443;-81
2021/03/17 11:05:31;;;;;;;4.68;3.35;;;7.00;49.00;9.60;101158.00;;;;5040221;28;20422;-80
2021/03/17 11:08:10;;;;;;;3.90;2.30;;;7.30;43.80;9.60;101134.00;;;;5042002;28;20678;-80
2021/03/17 11:10:58;;;;;;;4.25;2.70;;;7.40;42.40;9.40;101160.00;;;;5055870;28;20421;-77
2021/03/17 11:13:50;;;;;;;3.87;2.07;;;7.30;40.00;8.90;68240.00;;;;5041250;28;20236;-79
2021/03/17 11:16:29;;;;;;;4.37;2.60;;;7.00;38.50;9.20;101174.00;;;;5045556;28;20599;-78
2021/03/17 11:19:00;;;;;;;5.63;2.50;;;7.00;36.40;9.50;101164.00;;;;5060146;28;20416;-78